sensor_id;sensor_type;location;lat;lon;timestamp;pressure;altitude;pressure_sealevel;temperature;humidity
15314;BME280;7757;52.626;4.746;2023-07-13T00:00:35;100956.19;;;22.34;56.24
15314;BME280;7757;52.626;4.746;2023-07-13T00:03:01;100959.69;;;22.30;56.90
15314;BME280;7757;52.626;4.746;2023-07-13T00:05:27;101003.38;;;22.66;56.75
15314;BME280;7757;52.626;4.746;2023-07-13T00:07:53;101123.81;;;23.27;57.33
15314;BME280;7757;52.626;4.746;2023-07-13T00:10:20;101129.88;;;23.34;57.14
15314;BME280;7757;52.626;4.746;2023-07-13T00:12:47;101126.06;;;23.35;57.08
15314;BME280;7757;52.626;4.746;2023-07-13T00:15:22;101121.16;;;23.37;57.69
15314;BME280;7757;52.626;4.746;2023-07-13T00:17:52;101117.34;;;23.38;57.24
15314;BME280;7757;52.626;4.746;2023-07-13T00:20:20;101097.56;;;23.21;57.27
15314;BME280;7757;52.626;4.746;2023-07-13T00:22:53;101097.66;;;23.36;57.46
15314;BME280;7757;52.626;4.746;2023-07-13T00:25:22;101128.66;;;23.52;57.71
15314;BME280;7757;52.626;4.746;2023-07-13T00:27:49;100994.84;;;22.63;57.92
15314;BME280;7757;52.626;4.746;2023-07-13T00:30:18;101101.72;;;23.28;57.66
15314;BME280;7757;52.626;4.746;2023-07-13T00:32:44;101006.03;;;22.61;57.37
15314;BME280;7757;52.626;4.746;2023-07-13T00:35:10;100988.50;;;22.52;57.70
15314;BME280;7757;52.626;4.746;2023-07-13T00:37:36;100991.28;;;22.62;57.40
15314;BME280;7757;52.626;4.746;2023-07-13T00:40:03;101070.09;;;22.91;58.14
15314;BME280;7757;52.626;4.746;2023-07-13T00:42:29;101127.31;;;23.54;57.92
15314;BME280;7757;52.626;4.746;2023-07-13T00:47:39;101111.53;;;23.24;58.10
15314;BME280;7757;52.626;4.746;2023-07-13T00:50:07;100992.84;;;22.53;58.07
15314;BME280;7757;52.626;4.746;2023-07-13T00:52:35;101058.34;;;22.90;57.79
15314;BME280;7757;52.626;4.746;2023-07-13T00:55:02;101091.03;;;23.22;57.64
15314;BME280;7757;52.626;4.746;2023-07-13T00:57:28;101129.88;;;23.34;58.26
15314;BME280;7757;52.626;4.746;2023-07-13T00:59:56;101105.88;;;23.36;57.77
15314;BME280;7757;52.626;4.746;2023-07-13T01:02:24;101133.88;;;23.21;57.92
15314;BME280;7757;52.626;4.746;2023-07-13T01:04:49;101031.50;;;22.77;57.57
15314;BME280;7757;52.626;4.746;2023-07-13T01:07:15;100919.47;;;22.10;57.23
15314;BME280;7757;52.626;4.746;2023-07-13T01:09:41;101074.63;;;22.80;57.88
15314;BME280;7757;52.626;4.746;2023-07-13T01:12:07;101024.38;;;22.39;57.89
15314;BME280;7757;52.626;4.746;2023-07-13T01:14:33;101139.44;;;23.37;56.86
15314;BME280;7757;52.626;4.746;2023-07-13T01:16:58;100991.81;;;22.59;56.86
15314;BME280;7757;52.626;4.746;2023-07-13T01:19:40;100963.19;;;22.20;56.87
15314;BME280;7757;52.626;4.746;2023-07-13T01:22:14;101059.31;;;22.74;56.99
15314;BME280;7757;52.626;4.746;2023-07-13T01:24:42;101094.91;;;22.94;57.54
15314;BME280;7757;52.626;4.746;2023-07-13T01:27:10;101122.75;;;23.33;56.95
15314;BME280;7757;52.626;4.746;2023-07-13T01:29:40;101126.03;;;23.30;56.77
15314;BME280;7757;52.626;4.746;2023-07-13T01:32:09;101010.13;;;22.64;56.71
15314;BME280;7757;52.626;4.746;2023-07-13T01:34:35;101016.50;;;22.74;56.20
15314;BME280;7757;52.626;4.746;2023-07-13T01:37:03;101139.63;;;23.20;56.87
15314;BME280;7757;52.626;4.746;2023-07-13T01:39:28;101041.38;;;22.83;56.20
15314;BME280;7757;52.626;4.746;2023-07-13T01:41:54;101085.81;;;23.15;56.71
15314;BME280;7757;52.626;4.746;2023-07-13T01:44:19;101115.88;;;23.20;56.63
15314;BME280;7757;52.626;4.746;2023-07-13T01:46:45;101134.34;;;23.08;56.88
15314;BME280;7757;52.626;4.746;2023-07-13T01:49:11;101044.31;;;22.76;56.75
15314;BME280;7757;52.626;4.746;2023-07-13T01:51:37;101025.34;;;22.60;56.47
15314;BME280;7757;52.626;4.746;2023-07-13T01:54:02;101092.63;;;23.13;56.68
15314;BME280;7757;52.626;4.746;2023-07-13T01:56:31;101007.19;;;22.39;57.16
15314;BME280;7757;52.626;4.746;2023-07-13T01:58:57;101131.44;;;23.25;56.99
15314;BME280;7757;52.626;4.746;2023-07-13T02:01:25;101111.38;;;23.04;56.98
15314;BME280;7757;52.626;4.746;2023-07-13T02:03:51;101115.19;;;23.03;57.15
15314;BME280;7757;52.626;4.746;2023-07-13T02:06:16;101128.53;;;23.37;57.04
15314;BME280;7757;52.626;4.746;2023-07-13T02:08:42;101140.44;;;23.20;57.21
15314;BME280;7757;52.626;4.746;2023-07-13T02:11:08;101124.94;;;22.94;58.00
15314;BME280;7757;52.626;4.746;2023-07-13T02:13:34;100953.53;;;21.86;57.53
15314;BME280;7757;52.626;4.746;2023-07-13T02:16:00;101050.22;;;22.63;56.97
15314;BME280;7757;52.626;4.746;2023-07-13T02:18:28;101051.63;;;22.66;57.04
15314;BME280;7757;52.626;4.746;2023-07-13T02:20:54;101146.78;;;23.31;57.02
15314;BME280;7757;52.626;4.746;2023-07-13T02:23:20;101006.88;;;22.35;56.66
15314;BME280;7757;52.626;4.746;2023-07-13T02:25:45;101114.09;;;22.99;56.82
15314;BME280;7757;52.626;4.746;2023-07-13T02:28:11;101159.78;;;23.19;57.24
15314;BME280;7757;52.626;4.746;2023-07-13T02:30:37;101083.66;;;22.86;56.35
15314;BME280;7757;52.626;4.746;2023-07-13T02:33:04;100996.53;;;22.05;57.27
15314;BME280;7757;52.626;4.746;2023-07-13T02:35:30;101150.28;;;23.26;56.61
15314;BME280;7757;52.626;4.746;2023-07-13T02:37:56;101152.72;;;23.23;57.04
15314;BME280;7757;52.626;4.746;2023-07-13T02:40:21;101026.94;;;22.24;56.77
15314;BME280;7757;52.626;4.746;2023-07-13T02:42:47;101156.38;;;23.02;56.96
15314;BME280;7757;52.626;4.746;2023-07-13T02:45:13;101140.78;;;22.97;57.09
15314;BME280;7757;52.626;4.746;2023-07-13T02:47:41;101127.25;;;22.75;57.52
15314;BME280;7757;52.626;4.746;2023-07-13T02:50:09;101159.34;;;23.00;57.39
15314;BME280;7757;52.626;4.746;2023-07-13T02:52:35;101156.38;;;23.02;57.42
15314;BME280;7757;52.626;4.746;2023-07-13T02:55:00;101110.34;;;22.52;57.75
15314;BME280;7757;52.626;4.746;2023-07-13T02:57:26;101090.13;;;22.74;57.44
15314;BME280;7757;52.626;4.746;2023-07-13T02:59:53;100887.59;;;21.52;57.06
15314;BME280;7757;52.626;4.746;2023-07-13T03:02:19;101165.13;;;23.04;56.98
15314;BME280;7757;52.626;4.746;2023-07-13T03:04:45;101133.59;;;22.86;57.46
15314;BME280;7757;52.626;4.746;2023-07-13T03:07:11;101082.88;;;22.58;57.18
15314;BME280;7757;52.626;4.746;2023-07-13T03:09:37;101054.97;;;22.46;57.33
15314;BME280;7757;52.626;4.746;2023-07-13T03:12:03;101131.19;;;22.90;57.01
15314;BME280;7757;52.626;4.746;2023-07-13T03:14:28;101160.16;;;22.96;57.68
15314;BME280;7757;52.626;4.746;2023-07-13T03:16:55;101088.22;;;22.48;57.59
15314;BME280;7757;52.626;4.746;2023-07-13T03:19:20;101170.69;;;22.82;57.62
15314;BME280;7757;52.626;4.746;2023-07-13T03:21:46;101134.84;;;22.73;57.96
15314;BME280;7757;52.626;4.746;2023-07-13T03:24:11;100994.47;;;21.91;57.53
15314;BME280;7757;52.626;4.746;2023-07-13T03:26:37;101103.03;;;22.57;57.83
15314;BME280;7757;52.626;4.746;2023-07-13T03:29:03;101116.84;;;22.72;57.74
15314;BME280;7757;52.626;4.746;2023-07-13T03:31:33;101178.09;;;22.92;57.84
15314;BME280;7757;52.626;4.746;2023-07-13T03:33:59;101124.59;;;22.59;57.99
15314;BME280;7757;52.626;4.746;2023-07-13T03:36:27;101063.47;;;21.96;58.23
15314;BME280;7757;52.626;4.746;2023-07-13T03:38:56;101153.78;;;22.85;57.81
15314;BME280;7757;52.626;4.746;2023-07-13T03:41:22;101099.47;;;22.25;58.18
15314;BME280;7757;52.626;4.746;2023-07-13T03:43:49;101098.88;;;22.50;57.47
15314;BME280;7757;52.626;4.746;2023-07-13T03:46:18;101169.06;;;22.86;57.84
15314;BME280;7757;52.626;4.746;2023-07-13T03:48:45;101171.03;;;22.91;58.15
15314;BME280;7757;52.626;4.746;2023-07-13T03:51:12;101167.25;;;22.97;57.54
15314;BME280;7757;52.626;4.746;2023-07-13T03:53:41;101104.38;;;22.55;57.88
15314;BME280;7757;52.626;4.746;2023-07-13T03:56:08;101172.88;;;22.85;58.63
15314;BME280;7757;52.626;4.746;2023-07-13T03:58:39;101174.78;;;22.85;57.69
15314;BME280;7757;52.626;4.746;2023-07-13T04:01:06;101069.34;;;22.15;57.83
15314;BME280;7757;52.626;4.746;2023-07-13T04:03:33;101128.25;;;22.64;57.53
15314;BME280;7757;52.626;4.746;2023-07-13T04:06:00;101187.31;;;22.86;58.34
15314;BME280;7757;52.626;4.746;2023-07-13T04:08:32;101140.28;;;22.47;58.13
15314;BME280;7757;52.626;4.746;2023-07-13T04:10:58;100966.09;;;21.38;57.95
15314;BME280;7757;52.626;4.746;2023-07-13T04:13:24;101191.03;;;22.74;58.09
15314;BME280;7757;52.626;4.746;2023-07-13T04:15:50;101052.28;;;21.98;57.76
15314;BME280;7757;52.626;4.746;2023-07-13T04:18:16;100998.91;;;21.75;57.75
15314;BME280;7757;52.626;4.746;2023-07-13T04:20:42;100978.25;;;21.79;57.80
15314;BME280;7757;52.626;4.746;2023-07-13T04:23:07;101048.00;;;22.02;58.07
15314;BME280;7757;52.626;4.746;2023-07-13T04:25:33;101138.34;;;22.69;57.63
15314;BME280;7757;52.626;4.746;2023-07-13T04:27:59;101204.94;;;23.00;58.20
15314;BME280;7757;52.626;4.746;2023-07-13T04:30:27;101148.34;;;22.85;57.51
15314;BME280;7757;52.626;4.746;2023-07-13T04:32:56;101099.25;;;22.58;57.34
15314;BME280;7757;52.626;4.746;2023-07-13T04:35:21;101206.41;;;23.12;57.76
15314;BME280;7757;52.626;4.746;2023-07-13T04:37:48;101207.25;;;23.18;57.11
15314;BME280;7757;52.626;4.746;2023-07-13T04:40:16;101115.72;;;22.68;57.00
15314;BME280;7757;52.626;4.746;2023-07-13T04:42:44;101053.88;;;22.20;57.79
15314;BME280;7757;52.626;4.746;2023-07-13T04:45:10;101154.59;;;22.86;57.50
15314;BME280;7757;52.626;4.746;2023-07-13T04:47:38;101205.34;;;23.18;57.31
15314;BME280;7757;52.626;4.746;2023-07-13T04:50:06;101151.88;;;22.86;57.27
15314;BME280;7757;52.626;4.746;2023-07-13T04:52:31;101195.97;;;23.04;57.63
15314;BME280;7757;52.626;4.746;2023-07-13T04:54:59;101135.66;;;22.74;57.62
15314;BME280;7757;52.626;4.746;2023-07-13T04:57:31;101067.06;;;22.29;57.72
15314;BME280;7757;52.626;4.746;2023-07-13T04:59:56;101146.78;;;22.67;57.59
15314;BME280;7757;52.626;4.746;2023-07-13T05:02:26;101215.94;;;23.10;58.11
15314;BME280;7757;52.626;4.746;2023-07-13T05:04:53;101224.38;;;23.08;57.78
15314;BME280;7757;52.626;4.746;2023-07-13T05:07:19;101210.25;;;22.85;58.51
15314;BME280;7757;52.626;4.746;2023-07-13T05:09:44;101224.28;;;22.98;57.90
15314;BME280;7757;52.626;4.746;2023-07-13T05:12:10;101153.91;;;22.47;58.64
15314;BME280;7757;52.626;4.746;2023-07-13T05:14:36;101203.94;;;22.57;58.24
15314;BME280;7757;52.626;4.746;2023-07-13T05:17:02;101092.50;;;21.91;58.58
15314;BME280;7757;52.626;4.746;2023-07-13T05:19:28;101245.53;;;22.69;58.92
15314;BME280;7757;52.626;4.746;2023-07-13T05:21:53;101117.44;;;21.61;59.99
15314;BME280;7757;52.626;4.746;2023-07-13T05:24:19;101242.97;;;22.85;58.43
15314;BME280;7757;52.626;4.746;2023-07-13T05:26:45;101231.94;;;22.74;58.72
15314;BME280;7757;52.626;4.746;2023-07-13T05:29:10;101140.66;;;22.07;58.68
15314;BME280;7757;52.626;4.746;2023-07-13T05:31:36;101169.53;;;22.30;58.62
15314;BME280;7757;52.626;4.746;2023-07-13T05:34:01;101223.00;;;22.79;58.17
15314;BME280;7757;52.626;4.746;2023-07-13T05:36:27;101183.09;;;22.46;58.05
15314;BME280;7757;52.626;4.746;2023-07-13T05:38:52;101144.38;;;22.22;58.74
15314;BME280;7757;52.626;4.746;2023-07-13T05:41:18;101257.88;;;22.77;58.95
15314;BME280;7757;52.626;4.746;2023-07-13T05:43:43;101248.50;;;22.68;59.04
15314;BME280;7757;52.626;4.746;2023-07-13T05:46:09;101100.16;;;21.94;58.41
15314;BME280;7757;52.626;4.746;2023-07-13T05:48:38;101218.06;;;22.54;58.07
15314;BME280;7757;52.626;4.746;2023-07-13T05:51:04;101277.16;;;22.92;58.05
15314;BME280;7757;52.626;4.746;2023-07-13T05:53:29;101162.38;;;22.23;58.23
15314;BME280;7757;52.626;4.746;2023-07-13T05:55:55;101277.34;;;22.86;58.56
15314;BME280;7757;52.626;4.746;2023-07-13T05:58:27;101271.19;;;22.95;58.04
15314;BME280;7757;52.626;4.746;2023-07-13T06:01:01;101206.78;;;22.46;58.45
15314;BME280;7757;52.626;4.746;2023-07-13T06:03:27;101191.78;;;22.43;58.47
15314;BME280;7757;52.626;4.746;2023-07-13T06:05:52;101175.38;;;22.16;58.74
15314;BME280;7757;52.626;4.746;2023-07-13T06:08:18;101261.31;;;22.67;58.87
15314;BME280;7757;52.626;4.746;2023-07-13T06:10:43;101262.22;;;22.73;58.36
15314;BME280;7757;52.626;4.746;2023-07-13T06:13:08;101274.19;;;22.72;58.81
15314;BME280;7757;52.626;4.746;2023-07-13T06:15:34;101277.34;;;22.64;59.35
15314;BME280;7757;52.626;4.746;2023-07-13T06:17:59;101281.00;;;22.53;59.93
15314;BME280;7757;52.626;4.746;2023-07-13T06:20:25;101188.47;;;21.98;59.34
15314;BME280;7757;52.626;4.746;2023-07-13T06:22:50;101292.72;;;22.70;59.37
15314;BME280;7757;52.626;4.746;2023-07-13T06:25:16;101279.56;;;22.45;59.25
15314;BME280;7757;52.626;4.746;2023-07-13T06:27:42;101238.41;;;22.47;58.30
15314;BME280;7757;52.626;4.746;2023-07-13T06:30:08;101298.03;;;22.82;58.90
15314;BME280;7757;52.626;4.746;2023-07-13T06:32:37;101303.81;;;22.85;58.53
15314;BME280;7757;52.626;4.746;2023-07-13T06:35:03;101291.38;;;22.72;58.09
15314;BME280;7757;52.626;4.746;2023-07-13T06:37:29;101294.88;;;22.68;58.64
15314;BME280;7757;52.626;4.746;2023-07-13T06:39:54;101307.06;;;22.82;58.50
15314;BME280;7757;52.626;4.746;2023-07-13T06:42:19;101320.06;;;22.75;58.21
15314;BME280;7757;52.626;4.746;2023-07-13T06:44:48;101208.75;;;22.07;58.33
15314;BME280;7757;52.626;4.746;2023-07-13T06:47:13;101202.94;;;21.98;58.26
15314;BME280;7757;52.626;4.746;2023-07-13T06:49:39;101335.06;;;22.77;58.58
15314;BME280;7757;52.626;4.746;2023-07-13T06:52:05;101320.72;;;22.44;58.81
15314;BME280;7757;52.626;4.746;2023-07-13T06:54:30;101325.84;;;22.62;58.53
15314;BME280;7757;52.626;4.746;2023-07-13T06:56:56;101344.66;;;22.80;58.32
15314;BME280;7757;52.626;4.746;2023-07-13T06:59:21;101334.34;;;22.44;59.21
15314;BME280;7757;52.626;4.746;2023-07-13T07:01:47;101234.88;;;21.86;59.97
15314;BME280;7757;52.626;4.746;2023-07-13T07:04:12;101313.06;;;22.41;58.58
15314;BME280;7757;52.626;4.746;2023-07-13T07:06:38;101350.09;;;22.58;58.38
15314;BME280;7757;52.626;4.746;2023-07-13T07:09:03;101187.78;;;21.69;58.22
15314;BME280;7757;52.626;4.746;2023-07-13T07:11:35;101213.84;;;21.82;58.19
15314;BME280;7757;52.626;4.746;2023-07-13T07:14:00;101362.34;;;22.77;58.49
15314;BME280;7757;52.626;4.746;2023-07-13T07:16:26;101337.56;;;22.62;58.50
15314;BME280;7757;52.626;4.746;2023-07-13T07:18:51;101361.97;;;22.69;58.61
15314;BME280;7757;52.626;4.746;2023-07-13T07:21:20;101335.81;;;22.51;58.14
15314;BME280;7757;52.626;4.746;2023-07-13T07:23:48;101351.19;;;22.79;58.18
15314;BME280;7757;52.626;4.746;2023-07-13T07:26:14;101353.84;;;22.96;57.22
15314;BME280;7757;52.626;4.746;2023-07-13T07:28:41;101349.63;;;23.10;56.72
15314;BME280;7757;52.626;4.746;2023-07-13T07:31:07;101374.66;;;23.02;56.86
15314;BME280;7757;52.626;4.746;2023-07-13T07:33:33;101360.81;;;23.08;57.23
15314;BME280;7757;52.626;4.746;2023-07-13T07:36:00;101359.34;;;23.22;56.67
15314;BME280;7757;52.626;4.746;2023-07-13T07:38:26;101359.06;;;23.24;57.00
15314;BME280;7757;52.626;4.746;2023-07-13T07:40:52;101329.50;;;23.16;55.99
15314;BME280;7757;52.626;4.746;2023-07-13T07:43:17;101311.78;;;22.92;56.34
15314;BME280;7757;52.626;4.746;2023-07-13T07:45:44;101319.06;;;23.08;55.83
15314;BME280;7757;52.626;4.746;2023-07-13T07:48:10;101360.72;;;23.25;55.76
15314;BME280;7757;52.626;4.746;2023-07-13T07:50:36;101327.56;;;23.11;55.57
15314;BME280;7757;52.626;4.746;2023-07-13T07:53:02;101366.97;;;23.20;56.66
15314;BME280;7757;52.626;4.746;2023-07-13T07:55:37;101354.13;;;23.21;56.18
15314;BME280;7757;52.626;4.746;2023-07-13T07:58:05;101361.09;;;23.33;56.43
15314;BME280;7757;52.626;4.746;2023-07-13T08:00:31;101348.88;;;23.14;56.19
15314;BME280;7757;52.626;4.746;2023-07-13T08:02:58;101368.09;;;23.24;56.26
15314;BME280;7757;52.626;4.746;2023-07-13T08:05:24;101361.59;;;23.30;55.79
15314;BME280;7757;52.626;4.746;2023-07-13T08:07:50;101354.47;;;23.29;55.94
15314;BME280;7757;52.626;4.746;2023-07-13T08:10:16;101325.69;;;22.90;56.16
15314;BME280;7757;52.626;4.746;2023-07-13T08:12:41;101351.50;;;23.31;55.11
15314;BME280;7757;52.626;4.746;2023-07-13T08:15:11;101367.75;;;23.43;55.27
15314;BME280;7757;52.626;4.746;2023-07-13T08:17:37;101197.94;;;22.34;55.10
15314;BME280;7757;52.626;4.746;2023-07-13T08:20:03;101356.59;;;23.22;55.33
15314;BME280;7757;52.626;4.746;2023-07-13T08:22:29;101350.72;;;23.35;55.68
15314;BME280;7757;52.626;4.746;2023-07-13T08:24:54;101314.13;;;23.05;55.63
15314;BME280;7757;52.626;4.746;2023-07-13T08:27:25;101375.41;;;23.41;55.31
15314;BME280;7757;52.626;4.746;2023-07-13T08:29:51;101354.75;;;23.28;55.28
15314;BME280;7757;52.626;4.746;2023-07-13T08:32:19;101382.03;;;23.50;55.12
15314;BME280;7757;52.626;4.746;2023-07-13T08:34:51;101359.34;;;23.44;55.04
15314;BME280;7757;52.626;4.746;2023-07-13T08:37:20;101230.25;;;22.68;54.76
15314;BME280;7757;52.626;4.746;2023-07-13T08:39:45;101360.34;;;23.38;54.65
15314;BME280;7757;52.626;4.746;2023-07-13T08:42:18;101380.09;;;23.23;55.13
15314;BME280;7757;52.626;4.746;2023-07-13T08:47:46;101397.28;;;23.46;54.04
15314;BME280;7757;52.626;4.746;2023-07-13T08:50:18;101347.94;;;23.30;53.64
15314;BME280;7757;52.626;4.746;2023-07-13T08:52:45;101344.34;;;23.25;54.08
15314;BME280;7757;52.626;4.746;2023-07-13T08:55:18;101351.97;;;23.23;54.67
15314;BME280;7757;52.626;4.746;2023-07-13T08:57:54;101378.03;;;23.35;54.30
15314;BME280;7757;52.626;4.746;2023-07-13T09:00:23;101404.25;;;23.37;54.75
15314;BME280;7757;52.626;4.746;2023-07-13T09:02:58;101383.44;;;23.30;54.69
15314;BME280;7757;52.626;4.746;2023-07-13T09:05:37;101403.25;;;23.43;54.60
15314;BME280;7757;52.626;4.746;2023-07-13T09:11:03;101330.31;;;22.90;54.89
15314;BME280;7757;52.626;4.746;2023-07-13T09:16:06;101361.91;;;23.34;54.33
15314;BME280;7757;52.626;4.746;2023-07-13T09:18:37;101273.63;;;22.70;54.15
15314;BME280;7757;52.626;4.746;2023-07-13T09:21:08;101354.22;;;23.53;53.70
15314;BME280;7757;52.626;4.746;2023-07-13T09:23:36;101359.44;;;23.32;54.49
15314;BME280;7757;52.626;4.746;2023-07-13T09:26:22;101389.44;;;23.54;54.37
15314;BME280;7757;52.626;4.746;2023-07-13T09:29:13;101416.78;;;23.86;53.57
15314;BME280;7757;52.626;4.746;2023-07-13T09:31:50;101318.63;;;23.21;54.06
15314;BME280;7757;52.626;4.746;2023-07-13T09:34:17;101370.16;;;23.66;53.50
15314;BME280;7757;52.626;4.746;2023-07-13T09:36:43;101414.59;;;23.56;54.36
15314;BME280;7757;52.626;4.746;2023-07-13T09:39:33;101424.59;;;23.72;53.62
15314;BME280;7757;52.626;4.746;2023-07-13T09:42:18;101281.03;;;22.74;53.77
15314;BME280;7757;52.626;4.746;2023-07-13T09:45:00;101422.53;;;23.58;54.05
15314;BME280;7757;52.626;4.746;2023-07-13T09:47:32;101431.59;;;23.63;53.78
15314;BME280;7757;52.626;4.746;2023-07-13T09:50:06;101375.06;;;23.15;54.28
15314;BME280;7757;52.626;4.746;2023-07-13T09:57:47;101437.09;;;23.42;53.86
15314;BME280;7757;52.626;4.746;2023-07-13T10:00:21;101439.94;;;23.30;54.00
15314;BME280;7757;52.626;4.746;2023-07-13T10:05:45;101434.59;;;23.62;53.04
15314;BME280;7757;52.626;4.746;2023-07-13T10:08:26;101437.72;;;23.49;53.70
15314;BME280;7757;52.626;4.746;2023-07-13T10:13:44;101450.19;;;23.40;54.06
15314;BME280;7757;52.626;4.746;2023-07-13T10:16:10;101420.88;;;23.57;53.52
15314;BME280;7757;52.626;4.746;2023-07-13T10:18:57;101460.97;;;23.51;53.71
15314;BME280;7757;52.626;4.746;2023-07-13T10:21:36;101467.25;;;23.52;54.17
15314;BME280;7757;52.626;4.746;2023-07-13T10:24:14;101473.22;;;23.49;54.25
15314;BME280;7757;52.626;4.746;2023-07-13T10:26:48;101443.19;;;23.49;53.49
15314;BME280;7757;52.626;4.746;2023-07-13T10:29:15;101477.66;;;23.55;54.11
15314;BME280;7757;52.626;4.746;2023-07-13T10:31:41;101422.56;;;23.14;53.45
15314;BME280;7757;52.626;4.746;2023-07-13T10:34:11;101474.91;;;23.33;55.02
15314;BME280;7757;52.626;4.746;2023-07-13T10:36:42;101467.81;;;23.32;54.59
15314;BME280;7757;52.626;4.746;2023-07-13T10:39:15;101478.22;;;23.35;54.31
15314;BME280;7757;52.626;4.746;2023-07-13T10:41:48;101459.19;;;23.18;54.61
15314;BME280;7757;52.626;4.746;2023-07-13T10:44:28;101450.28;;;23.28;54.46
15314;BME280;7757;52.626;4.746;2023-07-13T10:47:00;101489.06;;;23.47;53.74
15314;BME280;7757;52.626;4.746;2023-07-13T10:49:31;101491.19;;;23.45;54.31
15314;BME280;7757;52.626;4.746;2023-07-13T10:51:57;101366.22;;;22.82;53.88
15314;BME280;7757;52.626;4.746;2023-07-13T10:59:42;101459.84;;;23.09;55.00
15314;BME280;7757;52.626;4.746;2023-07-13T11:02:25;101497.25;;;23.47;54.24
15314;BME280;7757;52.626;4.746;2023-07-13T11:04:53;101473.41;;;23.20;53.80
15314;BME280;7757;52.626;4.746;2023-07-13T11:07:21;101501.31;;;23.44;54.21
15314;BME280;7757;52.626;4.746;2023-07-13T11:09:53;101490.16;;;23.51;53.36
15314;BME280;7757;52.626;4.746;2023-07-13T11:12:26;101504.56;;;23.41;53.91
15314;BME280;7757;52.626;4.746;2023-07-13T11:17:34;101516.28;;;23.42;54.46
15314;BME280;7757;52.626;4.746;2023-07-13T11:22:49;101474.81;;;23.23;54.37
15314;BME280;7757;52.626;4.746;2023-07-13T11:25:28;101511.31;;;23.60;54.26
15314;BME280;7757;52.626;4.746;2023-07-13T11:28:16;101516.81;;;23.22;54.96
15314;BME280;7757;52.626;4.746;2023-07-13T11:30:46;101494.84;;;23.12;54.66
15314;BME280;7757;52.626;4.746;2023-07-13T11:36:07;101475.91;;;23.44;53.56
15314;BME280;7757;52.626;4.746;2023-07-13T11:38:47;101488.41;;;23.61;53.37
15314;BME280;7757;52.626;4.746;2023-07-13T11:41:22;101480.69;;;23.37;53.13
15314;BME280;7757;52.626;4.746;2023-07-13T11:43:52;101515.53;;;23.46;54.06
15314;BME280;7757;52.626;4.746;2023-07-13T11:46:26;101531.97;;;23.51;53.78
15314;BME280;7757;52.626;4.746;2023-07-13T11:48:52;101520.09;;;23.41;54.60
15314;BME280;7757;52.626;4.746;2023-07-13T11:51:26;101525.28;;;23.42;54.10
15314;BME280;7757;52.626;4.746;2023-07-13T11:53:54;101522.72;;;23.35;54.55
15314;BME280;7757;52.626;4.746;2023-07-13T11:56:20;101357.59;;;22.13;55.30
15314;BME280;7757;52.626;4.746;2023-07-13T11:58:56;101544.44;;;23.25;55.72
15314;BME280;7757;52.626;4.746;2023-07-13T12:01:32;101322.03;;;22.03;55.80
15314;BME280;7757;52.626;4.746;2023-07-13T12:04:03;101502.50;;;23.15;56.13
15314;BME280;7757;52.626;4.746;2023-07-13T12:06:38;101366.19;;;22.05;56.03
15314;BME280;7757;52.626;4.746;2023-07-13T12:09:14;101512.66;;;22.98;56.54
15314;BME280;7757;52.626;4.746;2023-07-13T12:11:43;101506.47;;;23.02;55.60
15314;BME280;7757;52.626;4.746;2023-07-13T12:14:16;101526.78;;;23.33;55.50
15314;BME280;7757;52.626;4.746;2023-07-13T12:16:42;101532.69;;;23.25;54.58
15314;BME280;7757;52.626;4.746;2023-07-13T12:19:17;101534.59;;;23.24;54.58
15314;BME280;7757;52.626;4.746;2023-07-13T12:21:44;101514.25;;;23.15;54.69
15314;BME280;7757;52.626;4.746;2023-07-13T12:24:18;101431.88;;;22.58;55.01
15314;BME280;7757;52.626;4.746;2023-07-13T12:26:44;101479.53;;;22.89;54.83
15314;BME280;7757;52.626;4.746;2023-07-13T12:29:17;101408.78;;;22.28;55.51
15314;BME280;7757;52.626;4.746;2023-07-13T12:31:52;101534.47;;;23.36;55.14
15314;BME280;7757;52.626;4.746;2023-07-13T12:34:27;101534.81;;;23.40;54.77
15314;BME280;7757;52.626;4.746;2023-07-13T12:36:59;101532.56;;;23.37;55.09
15314;BME280;7757;52.626;4.746;2023-07-13T12:39:32;101540.50;;;23.16;55.44
15314;BME280;7757;52.626;4.746;2023-07-13T12:42:21;101470.72;;;22.82;54.95
15314;BME280;7757;52.626;4.746;2023-07-13T12:44:50;101531.81;;;23.19;55.12
15314;BME280;7757;52.626;4.746;2023-07-13T12:47:20;101542.44;;;23.21;54.74
15314;BME280;7757;52.626;4.746;2023-07-13T12:49:54;101533.47;;;23.20;55.60
15314;BME280;7757;52.626;4.746;2023-07-13T12:52:28;101510.97;;;23.13;55.17
15314;BME280;7757;52.626;4.746;2023-07-13T12:55:07;101542.09;;;23.34;55.41
15314;BME280;7757;52.626;4.746;2023-07-13T12:57:58;101441.09;;;22.91;54.31
15314;BME280;7757;52.626;4.746;2023-07-13T13:00:31;101545.56;;;23.29;55.12
15314;BME280;7757;52.626;4.746;2023-07-13T13:03:05;101500.28;;;23.12;54.97
15314;BME280;7757;52.626;4.746;2023-07-13T13:05:32;101537.75;;;23.16;55.66
15314;BME280;7757;52.626;4.746;2023-07-13T13:07:59;101532.84;;;23.35;54.75
15314;BME280;7757;52.626;4.746;2023-07-13T13:13:06;101547.91;;;23.21;55.44
15314;BME280;7757;52.626;4.746;2023-07-13T13:15:34;101527.19;;;23.03;55.74
15314;BME280;7757;52.626;4.746;2023-07-13T13:18:02;101503.84;;;22.91;55.65
15314;BME280;7757;52.626;4.746;2023-07-13T13:20:28;101541.03;;;23.35;54.61
15314;BME280;7757;52.626;4.746;2023-07-13T13:22:53;101452.28;;;22.72;55.43
15314;BME280;7757;52.626;4.746;2023-07-13T13:25:21;101497.78;;;22.89;55.42
15314;BME280;7757;52.626;4.746;2023-07-13T13:27:47;101468.88;;;22.88;55.08
15314;BME280;7757;52.626;4.746;2023-07-13T13:30:15;101538.84;;;23.37;55.09
15314;BME280;7757;52.626;4.746;2023-07-13T13:32:46;101548.09;;;23.53;55.04
15314;BME280;7757;52.626;4.746;2023-07-13T13:35:15;101552.88;;;23.41;54.92
15314;BME280;7757;52.626;4.746;2023-07-13T13:37:42;101541.44;;;23.27;55.67
15314;BME280;7757;52.626;4.746;2023-07-13T13:40:18;101551.53;;;23.26;55.42
15314;BME280;7757;52.626;4.746;2023-07-13T13:42:47;101507.03;;;23.04;55.12
15314;BME280;7757;52.626;4.746;2023-07-13T13:45:14;101519.00;;;23.03;55.48